Time;durP1;ratioP1;P1;durP2;ratioP2;P2;SDS_P1;SDS_P2;PMS_P1;PMS_P2;Temp;Humidity;BMP_temperature;BMP_pressure;BME280_temperature;BME280_humidity;BME280_pressure;Samples;Min_cycle;Max_cycle;Signal;HPM_P1;HPM_P2
2023/09/07 11:41:42;;;;;;;6.22;3.47;;;;;;;;;;6313258;22;20038;-84
2023/09/07 11:44:08;;;;;;;5.30;3.40;;;;;;;;;;6340608;22;20030;-82
2023/09/07 11:46:34;;;;;;;4.15;3.50;;;;;;;;;;6340267;22;20025;-84
2023/09/07 11:49:00;;;;;;;3.45;3.15;;;;;;;;;;6340577;22;20010;-83
2023/09/07 11:51:25;;;;;;;3.63;3.35;;;;;;;;;;6340335;22;20003;-84
2023/09/07 11:53:51;;;;;;;4.32;3.90;;;;;;;;;;6340705;22;20033;-85
2023/09/07 11:56:17;;;;;;;4.03;3.38;;;;;;;;;;6340311;22;20418;-81
2023/09/07 11:58:43;;;;;;;3.88;2.95;;;;;;;;;;6340827;22;20023;-83
2023/09/07 12:01:09;;;;;;;6.07;3.70;;;;;;;;;;6340198;22;20335;-85
2023/09/07 12:03:35;;;;;;;3.85;3.55;;;;;;;;;;6340473;22;20444;-84
2023/09/07 12:06:00;;;;;;;3.95;3.65;;;;;;;;;;6340186;22;20003;-84
2023/09/07 12:08:26;;;;;;;3.50;3.20;;;;;;;;;;6340330;22;20329;-84
2023/09/07 12:10:51;;;;;;;3.83;3.42;;;;;;;;;;6339985;22;20005;-81
2023/09/07 12:13:17;;;;;;;4.90;3.75;;;;;;;;;;6340326;22;20031;-85
2023/09/07 12:15:42;;;;;;;3.63;3.33;;;;;;;;;;6340219;22;20010;-85
2023/09/07 12:18:08;;;;;;;4.70;3.25;;;;;;;;;;6340305;22;20073;-82
2023/09/07 12:20:34;;;;;;;3.85;3.40;;;;;;;;;;6340223;22;19999;-84
2023/09/07 12:23:02;;;;;;;3.92;2.80;;;;;;;;;;6339548;22;20003;-82
2023/09/07 12:25:27;;;;;;;3.05;2.75;;;;;;;;;;6340024;22;20045;-85
2023/09/07 12:27:53;;;;;;;3.78;3.45;;;;;;;;;;6340665;22;20010;-83
2023/09/07 12:30:20;;;;;;;4.20;3.80;;;;;;;;;;6340091;22;19999;-82
2023/09/07 12:32:45;;;;;;;3.95;2.88;;;;;;;;;;6339966;22;20016;-83
2023/09/07 12:35:11;;;;;;;4.57;3.13;;;;;;;;;;6340357;22;20307;-85
2023/09/07 12:37:36;;;;;;;4.53;3.20;;;;;;;;;;6340048;22;20052;-84
2023/09/07 12:40:15;;;;;;;3.47;3.17;;;;;;;;;;6339827;22;20032;-82
2023/09/07 12:42:42;;;;;;;4.15;3.67;;;;;;;;;;6339698;22;20011;-85
2023/09/07 12:45:12;;;;;;;3.30;3.00;;;;;;;;;;6339686;22;20022;-82
2023/09/07 12:47:38;;;;;;;4.57;3.75;;;;;;;;;;6339842;22;20003;-80
2023/09/07 12:50:04;;;;;;;3.38;3.08;;;;;;;;;;6339813;22;19998;-83
2023/09/07 12:52:30;;;;;;;4.60;3.22;;;;;;;;;;6340058;22;20375;-82
2023/09/07 12:54:56;;;;;;;4.65;3.25;;;;;;;;;;6340129;22;20306;-84
2023/09/07 12:57:22;;;;;;;4.72;3.08;;;;;;;;;;6340044;22;20005;-83
2023/09/07 12:59:47;;;;;;;5.47;3.58;;;;;;;;;;6339823;22;20006;-84
2023/09/07 13:02:12;;;;;;;3.90;3.22;;;;;;;;;;6339818;22;20087;-84
2023/09/07 13:04:38;;;;;;;4.40;3.55;;;;;;;;;;6339825;22;20333;-80
2023/09/07 13:07:03;;;;;;;4.05;3.13;;;;;;;;;;6339256;22;20418;-81
2023/09/07 13:09:29;;;;;;;5.18;3.53;;;;;;;;;;6339417;22;20005;-83
2023/09/07 13:11:54;;;;;;;3.97;3.58;;;;;;;;;;6339889;22;20009;-86
2023/09/07 13:14:19;;;;;;;3.17;2.88;;;;;;;;;;6340094;22;20003;-91
2023/09/07 13:16:45;;;;;;;4.35;3.15;;;;;;;;;;6339794;22;19999;-90
2023/09/07 13:19:11;;;;;;;4.63;3.30;;;;;;;;;;6339926;22;19999;-91
2023/09/07 13:21:36;;;;;;;4.35;3.05;;;;;;;;;;6339732;22;20335;-88
2023/09/07 13:24:03;;;;;;;3.88;3.40;;;;;;;;;;6339693;22;20009;-88
2023/09/07 20:55:22;;;;;;;6.78;5.90;;;;;;;;;;6347346;22;20302;-85
